Statham, Georgia
Current Conditions -  °F | °C
As of 4:35 PM on Wednesday 17 Dec 2014 (Local Time) from KWDR Reporting Station
Clear Clear  
Wind Chill: 54°   Ceiling: Unl
Heat Index: 54°   Visibility: 10mi
Dew Point: 42°   Wind: 8mph
Humidity: 64%   Direction: 280°W
Pressure: 30.14"   Gusts: NA
Location:  33.97°N, 83.6°W
Report Text: KWDR 172135Z AUTO 28007KT 260V320 10SM CLR 12/06 A3014 RMK AO2 T01220056
Loading
Personal Weather Stations






























Interactive Weather Map New forecast layout! Learn more

10-Day Weather Forecast

Advertisements
Track Severe Weather on mobile